Lewisville, TX

3:41 AM CST on December 19, 2014 (GMT -0600)
Westchester | Change Station
CLOSE
Current Station
Personal Weather Station
Location: Flower Mound, TX
Elevation: 646 ft
Nearby Weather Stations

Elev 646 ft 33.04 °N, 97.07 °W | Updated 4 seconds ago

Overcast
Overcast
45.7 °F
Feels Like 44 °F
N
4.5
Wind Variable Wind from NE
Gusts 9.8 mph

Today
High -- | Low -- °F
--% Chance of Precip.
Yesterday
High -- | Low -- °F
Precip. -- in
7:26 AM 5:24 PM
Waning Crescent, 9% visible
Pressure 30.13 in
Visibility 7.0 miles
Clouds Overcast 800 ft
Windchill 44 °F
Dew Point 45 °F
Humidity 99%
Rainfall 0.00 in
Snow Depth Not available.
UV 0.0 out of 12
Pollen 9.00 out of 12
Air Quality Not available.
Flu Activity Not available.
METAR KDFW 190853Z 04006KT 7SM OVC008 08/06 A3013 RMK AO2 SLP202 T00780061 58010

More Conditions Fewer Conditions

Pressure 30.13 in
Visibility 7.0 miles
Clouds Overcast 800 ft
Windchill 44 °F
Dew Point 45 °F
Humidity 99%
Rainfall 0.00 in
Snow Depth Not available.
UV 0.0 out of 12
Pollen 9.00 out of 12
Air Quality Not available.
Flu Activity Not available.
METAR KDFW 190853Z 04006KT 7SM OVC008 08/06 A3013 RMK AO2 SLP202 T00780061 58010

More Conditions Fewer Conditions

Nowcast | as of 3:24 am CST on December 19, 2014

Scattered to numerous showers and isolated thunderstorms will continue to move northeast across north and central Texas through 8 am. The rain will be mostly light to moderate though some brief heavy rain and cloud to ground lightning will accompany some of the thunderstorms as they move northeast at 35 mph.

×

10-Day Weather Forecast

Almanac

Astronomy

Dec. 19, 2014 Rise Set
Actual Time
Civil Twilight
Nautical Twilight
Astronomical Twilight
Moon
Length of Visible Light
Length of Day
Tomorrow will be .
, % of the Moon is Illuminated

Today's Extremes

State Highs State Lows

Community

WunderPhotos

Upload Photos

1,778,966 photos uploaded!

WunderBlogs® & News

Nearby

Air Quality

  Air Quality AQ Index Pollutant
Not available.

Snow Depth

Station Depth Elevation

Earthquake Activity

City Distance Mag. Time & Date
Minimum magnitude displayed is 2.5.

Coastal Water Temperatures

Place Temperature

Nearby Weather Stations